Thursday, May 24, 2018, 7:14 PM GMT
Back to Local

CWWE, Western Head, N. S.

Location: , , Canada Lat: 43.983
Local Time: 7:14 PM GMT (19:14 GMT) Lon: -64.667
Time Zone: GMT Elev: 29 ft

Show me the last for .
Show Coded

Time T Td Feel RH Dir Speed Gust Alt SLP Vis Weather Sky Remarks
2018-05-24 18:00 51 36 - 57 150° 8 - - 30.07 0 None
2018-05-24 17:00 51 36 - 55 130° 8 - - 30.07 0 None
2018-05-24 16:00 52 37 - 56 130° 10 - - 30.09 0 None
2018-05-24 15:00 52 35 - 51 100° 9 - - 30.09 0 None
2018-05-24 14:00 49 34 47 55 90° 6 - - 30.09 0 None
2018-05-24 13:00 47 33 44 57 10° 7 - - 30.09 0 None
2018-05-24 12:00 46 32 44 56 30° 5 - - 30.08 0 None
2018-05-24 11:00 42 31 37 66 10° 7 - - 30.06 0 None
2018-05-24 10:00 40 35 34 81 340° 8 - - 30.03 0 None
2018-05-24 09:00 37 31 32 79 340° 7 - - 30.00 0 None
2018-05-24 08:00 39 33 34 80 350° 7 - - 29.98 0 None
2018-05-24 07:00 40 35 35 80 350° 8 - - 29.96 0 None
2018-05-24 06:00 42 37 37 83 350° 7 - - 29.96 0 None
2018-05-24 05:00 42 37 38 83 360° 6 - - 29.96 0 None
2018-05-24 04:00 44 38 36 81 360° 10 17 - 29.93 0 None
2018-05-24 03:00 44 39 37 81 350° 9 17 - 29.93 0 Peak wind: 20 mph (18 kts) from 0° at 17 min
2018-05-24 02:00 45 39 37 80 350° 13 21 - 29.93 0 Peak wind: 29 mph (26 kts) from 330° at 18 min
2018-05-24 01:00 49 42 41 76 340° 17 25 - 29.90 0 Peak wind: 25 mph (22 kts) from 330° at 31 min
Pressure rising rapidly
2018-05-24 00:00 57 44 - 62 320° 14 22 - 29.83 0 Peak wind: 21 mph (19 kts) from 320° at 59 min
2018-05-23 23:00 61 46 - 58 330° 9 - - 29.80 0 Peak wind: 20 mph (18 kts) from 0° at 04 min
2018-05-23 22:00 65 47 - 53 320° 14 21 - 29.77 0 Peak wind: 26 mph (23 kts) from 320° at 38 min
2018-05-23 21:00 69 50 - 50 310° 12 20 - 29.74 0 Peak wind: 19 mph (17 kts) from 320° at 56 min
2018-05-23 20:00 53 48 - 84 200° 10 - - 29.73 0 None

Support USWX by starting your Amazon purchase here.